createdAt,value
2018-02-19T00:00:56.954Z,27.65
2018-02-19T00:03:24.552Z,30.37
2018-02-19T00:05:52.111Z,29.40
2018-02-19T00:08:19.665Z,28.60
2018-02-19T00:10:47.264Z,28.70
2018-02-19T00:13:14.787Z,29.30
2018-02-19T00:15:43.633Z,37.50
2018-02-19T00:18:11.237Z,26.52
2018-02-19T00:20:38.777Z,37.22
2018-02-19T00:23:07.079Z,29.98
2018-02-19T00:25:34.813Z,27.08
2018-02-19T00:28:02.433Z,24.25
2018-02-19T00:30:29.996Z,28.48
2018-02-19T00:32:57.535Z,24.98
2018-02-19T00:35:25.991Z,25.67
2018-02-19T00:37:53.534Z,27.08
2018-02-19T00:40:21.875Z,28.25
2018-02-19T00:42:50.188Z,27.00
2018-02-19T00:45:17.728Z,26.17
2018-02-19T00:47:46.032Z,25.73
2018-02-19T00:50:13.562Z,26.30
2018-02-19T00:52:42.165Z,26.25
2018-02-19T00:55:09.699Z,28.25
2018-02-19T00:57:37.241Z,27.95
2018-02-19T01:00:04.849Z,24.92
2018-02-19T01:02:33.143Z,32.53
2018-02-19T01:05:00.692Z,26.20
2018-02-19T01:07:29.069Z,24.98
2018-02-19T01:09:58.108Z,27.08
2018-02-19T01:12:25.655Z,24.48
2018-02-19T01:14:53.974Z,27.00
2018-02-19T01:17:21.537Z,27.37
2018-02-19T01:19:49.076Z,25.90
2018-02-19T01:22:16.606Z,25.83
2018-02-19T01:24:44.305Z,25.50
2018-02-19T01:27:11.855Z,28.20
2018-02-19T01:29:40.186Z,27.10
2018-02-19T01:32:07.730Z,27.52
2018-02-19T01:34:35.261Z,26.98
2018-02-19T01:37:03.543Z,26.60
2018-02-19T01:39:31.859Z,31.75
2018-02-19T01:41:59.404Z,28.50
2018-02-19T01:44:26.988Z,24.83
2018-02-19T01:46:54.534Z,22.92
2018-02-19T01:49:22.889Z,26.87
2018-02-19T01:51:50.597Z,25.52
2018-02-19T01:54:18.163Z,24.20
2018-02-19T01:56:45.685Z,25.42
2018-02-19T01:59:13.219Z,25.08
2018-02-19T02:01:40.758Z,24.87
2018-02-19T02:04:08.281Z,27.77
2018-02-19T02:06:36.187Z,26.42
2018-02-19T02:09:04.488Z,25.05
2018-02-19T02:11:32.019Z,22.42
2018-02-19T02:14:00.326Z,22.83
2018-02-19T02:16:27.877Z,25.83
2018-02-19T02:18:56.205Z,24.83
2018-02-19T02:21:23.726Z,24.63
2018-02-19T02:23:52.027Z,23.38
2018-02-19T02:26:19.593Z,25.65
2018-02-19T02:28:47.138Z,28.27
2018-02-19T02:31:15.543Z,22.85
2018-02-19T02:33:43.074Z,25.73
2018-02-19T02:36:11.387Z,23.62
2018-02-19T02:38:38.920Z,24.55
2018-02-19T02:41:07.239Z,24.50
2018-02-19T02:43:34.802Z,25.20
2018-02-19T02:46:02.330Z,24.45
2018-02-19T02:48:29.865Z,26.85
2018-02-19T02:50:57.406Z,24.27
2018-02-19T02:53:25.051Z,21.98
2018-02-19T02:55:53.375Z,22.37
2018-02-19T02:58:20.914Z,25.95
2018-02-19T03:00:48.457Z,24.67
2018-02-19T03:03:16.768Z,25.50
2018-02-19T03:05:44.317Z,24.42
2018-02-19T03:08:11.934Z,24.58
2018-02-19T03:10:39.473Z,24.35
2018-02-19T03:13:07.005Z,21.92
2018-02-19T03:15:34.560Z,26.08
2018-02-19T03:18:02.939Z,20.88
2018-02-19T03:20:30.577Z,25.45
2018-02-19T03:22:58.112Z,24.70
2018-02-19T03:25:25.642Z,25.80
2018-02-19T03:27:53.978Z,23.05
2018-02-19T03:30:21.642Z,25.20
2018-02-19T03:32:49.584Z,23.73
2018-02-19T03:35:17.128Z,22.65
2018-02-19T03:37:45.432Z,21.90
2018-02-19T03:40:12.968Z,24.10
2018-02-19T03:42:40.575Z,24.25
2018-02-19T03:45:08.128Z,26.83
2018-02-19T03:47:35.654Z,25.88
2018-02-19T03:50:03.187Z,24.52
2018-02-19T03:52:30.724Z,25.00
2018-02-19T03:54:58.253Z,23.80
2018-02-19T03:57:25.801Z,24.92
2018-02-19T03:59:53.424Z,24.98
2018-02-19T04:02:20.957Z,23.45
2018-02-19T04:04:48.485Z,24.15
2018-02-19T04:07:16.013Z,28.48
2018-02-19T04:09:43.581Z,28.02
2018-02-19T04:12:11.129Z,26.67
2018-02-19T04:14:39.424Z,27.10
2018-02-19T04:17:06.953Z,30.50
2018-02-19T04:19:35.515Z,35.20
2018-02-19T04:22:03.068Z,35.22
2018-02-19T04:24:30.622Z,30.52
2018-02-19T04:26:58.191Z,29.10
2018-02-19T04:29:25.731Z,27.05
2018-02-19T04:31:54.034Z,27.45
2018-02-19T04:34:21.591Z,24.63
2018-02-19T04:36:49.117Z,24.67
2018-02-19T04:39:16.798Z,26.60
2018-02-19T04:41:45.115Z,24.70
2018-02-19T04:44:30.284Z,25.85
2018-02-19T04:46:57.890Z,25.48
2018-02-19T04:49:25.418Z,25.17
2018-02-19T04:51:52.953Z,27.92
2018-02-19T04:54:21.262Z,32.95
2018-02-19T04:56:48.842Z,29.15
2018-02-19T04:59:16.388Z,49.85
2018-02-19T05:01:43.924Z,48.53
2018-02-19T05:04:12.232Z,35.95
2018-02-19T05:06:39.763Z,28.60
2018-02-19T05:09:07.296Z,32.15
2018-02-19T05:11:35.341Z,29.15
2018-02-19T05:14:02.923Z,30.48
2018-02-19T05:16:31.184Z,43.87
2018-02-19T05:18:58.777Z,57.80
2018-02-19T05:21:26.337Z,35.08
2018-02-19T05:23:53.914Z,30.05
2018-02-19T05:26:21.442Z,27.55
2018-02-19T05:28:48.976Z,29.48
2018-02-19T05:31:16.518Z,26.58
2018-02-19T05:33:44.054Z,25.33
2018-02-19T05:36:12.023Z,28.52
2018-02-19T05:38:39.560Z,25.77
2018-02-19T05:41:07.858Z,28.80
2018-02-19T05:43:35.489Z,29.23
2018-02-19T05:46:03.043Z,29.00
2018-02-19T05:48:30.620Z,30.60
2018-02-19T05:50:58.174Z,28.92
2018-02-19T05:53:25.711Z,29.30
2018-02-19T05:55:53.306Z,31.12
2018-02-19T05:58:20.835Z,31.95
2018-02-19T06:00:48.395Z,30.95
2018-02-19T06:03:15.940Z,31.85
2018-02-19T06:05:44.235Z,36.03
2018-02-19T06:08:11.778Z,30.10
2018-02-19T06:10:40.074Z,37.97
2018-02-19T06:13:07.641Z,35.67
2018-02-19T06:15:35.199Z,37.15
2018-02-19T06:18:03.491Z,34.30
2018-02-19T06:20:31.032Z,32.55
2018-02-19T06:22:58.561Z,34.70
2018-02-19T06:25:26.486Z,33.13
2018-02-19T06:27:54.805Z,29.48
2018-02-19T06:30:22.398Z,34.20
2018-02-19T06:32:49.926Z,30.90
2018-02-19T06:35:17.460Z,29.17
2018-02-19T06:37:45.787Z,26.60
2018-02-19T06:40:13.326Z,28.95
2018-02-19T06:42:40.863Z,22.52
2018-02-19T06:45:08.403Z,25.45
2018-02-19T06:47:35.939Z,24.35
2018-02-19T06:50:03.881Z,23.33
2018-02-19T06:52:32.195Z,22.48
2018-02-19T06:54:59.780Z,20.55
2018-02-19T06:57:27.327Z,22.08
2018-02-19T06:59:54.864Z,23.25
2018-02-19T07:02:23.186Z,21.95
2018-02-19T07:04:50.739Z,26.12
2018-02-19T07:07:18.277Z,24.12
2018-02-19T07:09:46.635Z,25.45
2018-02-19T07:12:14.170Z,22.98
2018-02-19T07:14:41.735Z,25.48
2018-02-19T07:17:09.263Z,23.33
2018-02-19T07:19:36.849Z,23.05
2018-02-19T07:22:05.115Z,22.37
2018-02-19T07:24:32.634Z,22.08
2018-02-19T07:27:00.200Z,24.63
2018-02-19T07:29:27.768Z,23.65
2018-02-19T07:31:55.332Z,21.87
2018-02-19T07:34:22.878Z,22.65
2018-02-19T07:36:50.417Z,22.02
2018-02-19T07:39:17.976Z,22.35
2018-02-19T07:41:45.530Z,21.45
2018-02-19T07:44:13.121Z,26.95
2018-02-19T07:46:41.384Z,24.58
2018-02-19T07:49:08.946Z,23.62
2018-02-19T07:51:36.627Z,22.98
2018-02-19T07:54:04.153Z,23.52
2018-02-19T07:56:32.456Z,23.25
2018-02-19T07:59:00.010Z,21.25
2018-02-19T08:01:28.341Z,23.77
2018-02-19T08:03:55.876Z,18.27
2018-02-19T08:06:23.417Z,22.87
2018-02-19T08:08:50.939Z,22.87
2018-02-19T08:11:18.462Z,19.85
2018-02-19T08:13:46.763Z,19.42
2018-02-19T08:16:14.332Z,18.83
2018-02-19T08:18:41.867Z,20.55
2018-02-19T08:21:10.176Z,20.05
2018-02-19T08:23:37.721Z,23.05
2018-02-19T08:26:06.018Z,73.90
2018-02-19T08:28:33.571Z,20.17
2018-02-19T08:31:01.118Z,19.08
2018-02-19T08:33:28.646Z,48.45
2018-02-19T08:35:56.199Z,28.10
2018-02-19T08:38:23.730Z,32.17
2018-02-19T08:40:52.060Z,43.50
2018-02-19T08:43:19.610Z,36.53
2018-02-19T08:45:47.149Z,17.85
2018-02-19T08:48:14.674Z,21.52
2018-02-19T08:50:42.219Z,22.35
2018-02-19T08:53:10.871Z,17.25
2018-02-19T08:55:38.405Z,18.50
2018-02-19T08:58:05.935Z,20.73
2018-02-19T09:00:33.477Z,19.62
2018-02-19T09:03:01.032Z,17.55
2018-02-19T09:05:28.614Z,19.65
2018-02-19T09:07:56.185Z,20.08
2018-02-19T09:10:23.739Z,18.48
2018-02-19T09:12:51.290Z,18.12
2018-02-19T09:15:19.610Z,21.35
2018-02-19T09:17:47.187Z,22.62
2018-02-19T09:20:14.720Z,19.35
2018-02-19T09:22:42.246Z,19.60
2018-02-19T09:25:10.569Z,19.98
2018-02-19T09:27:38.127Z,20.45
2018-02-19T09:30:05.985Z,20.42
2018-02-19T09:32:34.291Z,26.15
2018-02-19T09:35:01.809Z,18.05
2018-02-19T09:37:29.376Z,21.85
2018-02-19T09:39:56.935Z,18.42
2018-02-19T09:42:24.503Z,21.17
2018-02-19T09:44:52.048Z,26.70
2018-02-19T09:47:19.593Z,21.10
2018-02-19T09:49:47.126Z,18.48
2018-02-19T09:52:14.668Z,17.15
2018-02-19T09:54:42.267Z,16.67
2018-02-19T09:57:09.802Z,17.15
2018-02-19T09:59:38.118Z,17.12
2018-02-19T10:02:05.683Z,17.10
2018-02-19T10:04:33.206Z,17.65
2018-02-19T10:07:00.772Z,19.40
2018-02-19T10:09:28.323Z,18.10
2018-02-19T10:11:55.863Z,17.08
2018-02-19T10:14:23.414Z,16.08
2018-02-19T10:16:50.955Z,17.27
2018-02-19T10:19:19.291Z,18.08
2018-02-19T10:21:46.833Z,15.88
2018-02-19T10:24:14.423Z,15.30
2018-02-19T10:26:41.942Z,17.27
2018-02-19T10:29:09.515Z,18.25
2018-02-19T10:31:37.135Z,17.75
2018-02-19T10:34:04.672Z,16.45
2018-02-19T10:36:32.216Z,15.52
2018-02-19T10:38:59.847Z,16.90
2018-02-19T10:41:27.386Z,15.40
2018-02-19T10:43:54.972Z,16.90
2018-02-19T10:46:22.575Z,16.42
2018-02-19T10:48:50.112Z,20.40
2018-02-19T10:51:18.434Z,16.80
2018-02-19T10:53:46.007Z,16.35
2018-02-19T10:56:13.706Z,15.93
2018-02-19T10:58:44.195Z,18.90
2018-02-19T11:01:11.805Z,16.15
2018-02-19T11:03:39.411Z,14.55
2018-02-19T11:06:07.730Z,14.57
2018-02-19T11:08:35.681Z,16.00
2018-02-19T11:11:03.225Z,16.95
2018-02-19T11:13:31.545Z,15.52
2018-02-19T11:15:59.094Z,16.85
2018-02-19T11:18:26.647Z,15.23
2018-02-19T11:20:55.254Z,15.55
2018-02-19T11:23:22.787Z,16.90
2018-02-19T11:25:51.093Z,16.85
2018-02-19T11:28:18.618Z,15.93
2018-02-19T11:30:46.225Z,16.25
2018-02-19T11:33:13.795Z,17.12
2018-02-19T11:35:41.349Z,17.95
2018-02-19T11:38:09.666Z,15.30
2018-02-19T11:40:37.367Z,15.00
2018-02-19T11:43:04.918Z,15.52
2018-02-19T11:45:32.493Z,15.52
2018-02-19T11:48:00.062Z,31.12
2018-02-19T11:50:27.618Z,81.40
2018-02-19T11:52:55.201Z,25.75
2018-02-19T11:55:22.776Z,16.50
2018-02-19T11:57:50.475Z,16.02
2018-02-19T12:00:18.006Z,16.23
2018-02-19T12:02:46.337Z,15.65
2018-02-19T12:05:13.891Z,15.77
2018-02-19T12:07:41.436Z,17.37
2018-02-19T12:10:09.785Z,16.87
2018-02-19T12:12:37.306Z,15.10
2018-02-19T12:15:04.882Z,16.02
2018-02-19T12:17:32.415Z,17.35
2018-02-19T12:20:00.717Z,16.75
2018-02-19T12:22:28.588Z,17.52
2018-02-19T12:24:56.137Z,15.52
2018-02-19T12:27:24.450Z,15.65
2018-02-19T12:29:51.990Z,17.58
2018-02-19T12:32:19.665Z,16.52
2018-02-19T12:34:47.224Z,15.88
2018-02-19T12:37:14.780Z,16.05
2018-02-19T12:39:42.441Z,15.27
2018-02-19T12:42:09.985Z,14.57
2018-02-19T12:44:37.600Z,16.77
2018-02-19T12:47:05.231Z,14.93
2018-02-19T12:49:33.558Z,14.27
2018-02-19T12:52:01.970Z,16.52
2018-02-19T12:54:29.703Z,14.65
2018-02-19T12:56:57.335Z,15.57
2018-02-19T12:59:25.658Z,17.17
2018-02-19T13:01:53.206Z,17.02
2018-02-19T13:04:20.755Z,16.05
2018-02-19T13:06:49.379Z,15.95
2018-02-19T13:09:16.916Z,16.23
2018-02-19T13:11:45.254Z,17.05
2018-02-19T13:14:12.807Z,16.70
2018-02-19T13:16:40.358Z,15.80
2018-02-19T13:19:07.936Z,15.85
2018-02-19T13:21:35.478Z,15.18
2018-02-19T13:24:03.140Z,15.13
2018-02-19T13:26:30.674Z,15.90
2018-02-19T13:28:58.206Z,15.73
2018-02-19T13:31:25.870Z,17.67
2018-02-19T13:33:53.432Z,16.08
2018-02-19T13:36:20.980Z,15.85
2018-02-19T13:38:48.658Z,16.77
2018-02-19T13:41:16.199Z,15.75
2018-02-19T13:43:45.287Z,15.90
2018-02-19T13:46:13.612Z,16.90
2018-02-19T13:48:41.196Z,16.33
2018-02-19T13:51:08.747Z,16.30
2018-02-19T13:53:36.298Z,16.67
2018-02-19T13:56:03.856Z,17.37
2018-02-19T13:58:31.401Z,16.42
2018-02-19T14:00:59.746Z,18.87
2018-02-19T14:03:27.287Z,17.75
2018-02-19T14:05:54.841Z,18.50
2018-02-19T14:08:22.366Z,16.52
2018-02-19T14:10:49.926Z,17.48
2018-02-19T14:13:17.488Z,18.48
2018-02-19T14:15:45.024Z,18.75
2018-02-19T14:18:12.592Z,16.55
2018-02-19T14:20:40.903Z,16.08
2018-02-19T14:23:08.452Z,16.90
2018-02-19T14:25:36.017Z,19.42
2018-02-19T14:28:03.556Z,18.02
2018-02-19T14:30:31.096Z,17.98
2018-02-19T14:32:58.636Z,17.42
2018-02-19T14:35:26.175Z,20.37
2018-02-19T14:37:53.913Z,15.75
2018-02-19T14:40:22.223Z,17.50
2018-02-19T14:42:49.768Z,14.68
2018-02-19T14:45:17.304Z,19.50
2018-02-19T14:47:45.603Z,17.42
2018-02-19T14:50:13.239Z,16.75
2018-02-19T14:52:41.544Z,17.30
2018-02-19T14:55:10.035Z,17.73
2018-02-19T14:57:37.586Z,15.35
2018-02-19T15:00:05.900Z,18.08
2018-02-19T15:02:33.853Z,18.02
2018-02-19T15:05:01.385Z,16.10
2018-02-19T15:07:28.932Z,17.12
2018-02-19T15:09:56.598Z,19.15
2018-02-19T15:12:24.149Z,14.98
2018-02-19T15:14:51.724Z,16.98
2018-02-19T15:17:19.274Z,17.90
2018-02-19T15:19:46.823Z,16.67
2018-02-19T15:22:14.360Z,15.73
2018-02-19T15:24:42.662Z,17.35
2018-02-19T15:27:10.525Z,18.30
2018-02-19T15:29:38.069Z,18.10
2018-02-19T15:32:05.637Z,16.92
2018-02-19T15:34:33.183Z,16.60
2018-02-19T15:37:00.706Z,17.40
2018-02-19T15:39:28.270Z,17.70
2018-02-19T15:41:55.883Z,17.08
2018-02-19T15:44:23.451Z,16.92
2018-02-19T15:46:51.017Z,15.98
2018-02-19T15:49:18.550Z,19.50
2018-02-19T15:51:46.106Z,23.77
2018-02-19T15:54:13.705Z,17.45
2018-02-19T15:56:41.375Z,15.68
2018-02-19T15:59:08.996Z,16.85
2018-02-19T16:01:36.611Z,16.70
2018-02-19T16:04:04.254Z,16.98
2018-02-19T16:06:31.806Z,18.60
2018-02-19T16:08:59.344Z,18.00
2018-02-19T16:11:27.741Z,22.77
2018-02-19T16:13:55.292Z,20.30
2018-02-19T16:16:23.635Z,20.55
2018-02-19T16:18:51.170Z,19.37
2018-02-19T16:21:18.762Z,20.05
2018-02-19T16:23:46.348Z,18.08
2018-02-19T16:26:13.910Z,18.08
2018-02-19T16:28:41.588Z,17.23
2018-02-19T16:31:09.920Z,19.40
2018-02-19T16:33:37.488Z,20.30
2018-02-19T16:36:05.027Z,19.00
2018-02-19T16:38:32.581Z,23.08
2018-02-19T16:41:00.928Z,22.50
2018-02-19T16:43:28.485Z,21.25
2018-02-19T16:45:56.019Z,22.42
2018-02-19T16:48:24.873Z,21.70
2018-02-19T16:50:53.217Z,20.27
2018-02-19T16:53:20.803Z,22.90
2018-02-19T16:55:48.337Z,22.00
2018-02-19T16:58:15.871Z,20.70
2018-02-19T17:00:44.230Z,22.60
2018-02-19T17:03:11.796Z,27.62
2018-02-19T17:05:39.392Z,25.15
2018-02-19T17:08:07.708Z,23.83
2018-02-19T17:10:35.239Z,21.90
2018-02-19T17:13:02.784Z,24.80
2018-02-19T17:15:30.331Z,27.40
2018-02-19T17:17:57.903Z,23.25
2018-02-19T17:20:25.494Z,21.85
2018-02-19T17:22:53.952Z,21.85
2018-02-19T17:25:21.527Z,21.52
2018-02-19T17:27:49.084Z,21.77
2018-02-19T17:30:16.671Z,24.12
2018-02-19T17:32:45.029Z,25.15
2018-02-19T17:35:15.116Z,24.50
2018-02-19T17:37:42.701Z,24.83
2018-02-19T17:40:10.345Z,24.87
2018-02-19T17:42:37.910Z,27.10
2018-02-19T17:45:05.462Z,24.27
2018-02-19T17:47:33.037Z,21.75
2018-02-19T17:50:00.630Z,22.15
2018-02-19T17:52:28.254Z,21.95
2018-02-19T17:54:56.594Z,26.50
2018-02-19T17:57:24.151Z,37.75
2018-02-19T17:59:51.706Z,29.60
2018-02-19T18:02:19.241Z,28.05
2018-02-19T18:04:46.874Z,26.48
2018-02-19T18:07:14.442Z,25.70
2018-02-19T18:09:41.977Z,25.45
2018-02-19T18:12:09.534Z,24.37
2018-02-19T18:14:37.085Z,27.55
2018-02-19T18:17:04.632Z,26.45
2018-02-19T18:19:32.506Z,24.52
2018-02-19T18:22:00.073Z,27.13
2018-02-19T18:24:27.617Z,28.15
2018-02-19T18:26:55.921Z,26.87
2018-02-19T18:29:23.462Z,24.80
2018-02-19T18:31:51.794Z,24.12
2018-02-19T18:34:19.342Z,27.48
2018-02-19T18:36:46.884Z,25.92
2018-02-19T18:39:14.465Z,24.67
2018-02-19T18:41:42.061Z,23.83
2018-02-19T18:44:09.644Z,27.70
2018-02-19T18:46:37.196Z,30.95
2018-02-19T18:49:04.745Z,31.98
2018-02-19T18:51:32.357Z,32.22
2018-02-19T18:53:59.887Z,33.05
2018-02-19T18:56:27.513Z,37.50
2018-02-19T18:58:55.847Z,38.28
2018-02-19T19:01:23.507Z,45.12
2018-02-19T19:03:51.073Z,119.85
2018-02-19T19:06:18.617Z,44.08
2018-02-19T19:08:58.112Z,31.95
2018-02-19T19:11:25.657Z,28.52
2018-02-19T19:13:53.217Z,27.67
2018-02-19T19:16:20.802Z,27.58
2018-02-19T19:18:48.381Z,30.20
2018-02-19T19:21:15.946Z,31.87
2018-02-19T19:23:44.419Z,29.33
2018-02-19T19:26:11.980Z,34.85
2018-02-19T19:28:39.559Z,41.95
2018-02-19T19:31:07.176Z,46.75
2018-02-19T19:33:34.744Z,42.38
2018-02-19T19:36:02.420Z,46.10
2018-02-19T19:38:30.751Z,44.75
2018-02-19T19:40:59.135Z,37.78
2018-02-19T19:43:27.614Z,40.80
2018-02-19T19:45:55.255Z,42.67
2018-02-19T19:48:22.831Z,43.87
2018-02-19T19:50:50.486Z,39.85
2018-02-19T19:53:18.054Z,42.00
2018-02-19T19:55:45.674Z,32.88
2018-02-19T19:58:14.255Z,39.15
2018-02-19T20:00:42.636Z,45.30
2018-02-19T20:03:10.975Z,57.00
2018-02-19T20:05:38.596Z,48.17
2018-02-19T20:08:06.222Z,52.25
2018-02-19T20:10:34.451Z,48.42
2018-02-19T20:13:02.035Z,41.45
2018-02-19T20:15:29.604Z,50.28
2018-02-19T20:17:57.266Z,49.47
2018-02-19T20:20:24.879Z,47.50
2018-02-19T20:22:52.720Z,47.28
2018-02-19T20:25:20.293Z,45.17
2018-02-19T20:27:47.868Z,45.05
2018-02-19T20:30:15.495Z,53.97
2018-02-19T20:32:43.114Z,46.40
2018-02-19T20:35:10.689Z,113.15
2018-02-19T20:37:39.019Z,46.10
2018-02-19T20:40:06.573Z,35.58
2018-02-19T20:42:34.547Z,33.17
2018-02-19T20:45:02.119Z,35.60
2018-02-19T20:47:29.708Z,38.72
2018-02-19T20:49:57.308Z,34.22
2018-02-19T20:52:24.860Z,37.92
2018-02-19T20:54:53.130Z,33.17
2018-02-19T20:57:20.706Z,36.15
2018-02-19T20:59:48.316Z,35.80
2018-02-19T21:02:15.869Z,35.55
2018-02-19T21:04:44.195Z,38.90
2018-02-19T21:07:11.750Z,49.58
2018-02-19T21:09:39.377Z,44.15
2018-02-19T21:12:07.739Z,38.03
2018-02-19T21:14:35.301Z,38.63
2018-02-19T21:17:02.837Z,40.15
2018-02-19T21:19:30.396Z,46.37
2018-02-19T21:21:58.033Z,46.28
2018-02-19T21:24:26.347Z,42.15
2018-02-19T21:26:53.927Z,37.33
2018-02-19T21:29:21.475Z,39.45
2018-02-19T21:31:49.027Z,43.28
2018-02-19T21:34:16.612Z,47.97
2018-02-19T21:36:44.145Z,46.10
2018-02-19T21:39:11.691Z,42.17
2018-02-19T21:41:39.237Z,39.10
2018-02-19T21:44:06.789Z,38.08
2018-02-19T21:46:34.472Z,41.90
2018-02-19T21:49:02.021Z,38.90
2018-02-19T21:51:29.577Z,36.10
2018-02-19T21:53:57.333Z,39.80
2018-02-19T21:56:24.870Z,38.17
2018-02-19T21:58:53.207Z,39.00
2018-02-19T22:01:20.750Z,39.10
2018-02-19T22:03:48.309Z,33.85
2018-02-19T22:06:15.968Z,40.70
2018-02-19T22:08:43.516Z,36.35
2018-02-19T22:11:11.849Z,43.42
2018-02-19T22:13:39.421Z,42.88
2018-02-19T22:16:07.807Z,45.88
2018-02-19T22:18:35.342Z,40.22
2018-02-19T22:21:02.889Z,44.03
2018-02-19T22:23:30.450Z,43.60
2018-02-19T22:25:58.061Z,128.75
2018-02-19T22:28:25.715Z,43.65
2018-02-19T22:30:53.206Z,42.30
2018-02-19T22:33:20.750Z,40.15
2018-02-19T22:35:48.331Z,39.33
2018-02-19T22:38:15.886Z,40.53
2018-02-19T22:40:43.431Z,42.65
2018-02-19T22:43:10.971Z,42.03
2018-02-19T22:45:39.280Z,40.50
2018-02-19T22:48:07.233Z,41.53
2018-02-19T22:50:35.529Z,39.78
2018-02-19T22:53:03.058Z,40.30
2018-02-19T22:55:30.720Z,41.65
2018-02-19T22:57:58.255Z,39.78
2018-02-19T23:00:26.586Z,40.55
2018-02-19T23:02:54.873Z,46.75
2018-02-19T23:05:23.188Z,41.03
2018-02-19T23:07:50.728Z,43.63
2018-02-19T23:10:18.262Z,43.65
2018-02-19T23:12:45.863Z,41.25
2018-02-19T23:15:13.402Z,45.65
2018-02-19T23:17:41.714Z,45.40
2018-02-19T23:20:09.249Z,42.28
2018-02-19T23:22:37.600Z,43.83
2018-02-19T23:25:05.165Z,41.20
2018-02-19T23:27:32.729Z,45.42
2018-02-19T23:30:00.270Z,42.13
2018-02-19T23:32:27.803Z,41.75
2018-02-19T23:34:56.111Z,43.67
2018-02-19T23:37:23.676Z,45.35
2018-02-19T23:39:51.218Z,44.85
2018-02-19T23:42:19.589Z,44.70
2018-02-19T23:44:47.129Z,41.33
2018-02-19T23:47:14.681Z,40.47
2018-02-19T23:49:42.237Z,44.17
2018-02-19T23:52:09.774Z,46.03
2018-02-19T23:54:37.302Z,46.22
2018-02-19T23:57:04.829Z,45.30
2018-02-19T23:59:32.437Z,44.47
